createdAt,value
2018-06-08T00:01:15.828Z,30.13
2018-06-08T00:03:43.950Z,29.97
2018-06-08T00:06:12.053Z,27.67
2018-06-08T00:08:40.205Z,29.07
2018-06-08T00:11:08.312Z,27.17
2018-06-08T00:13:36.439Z,22.53
2018-06-08T00:16:04.570Z,25.40
2018-06-08T00:18:32.691Z,25.90
2018-06-08T00:21:00.800Z,30.03
2018-06-08T00:23:28.928Z,27.77
2018-06-08T00:25:57.035Z,26.97
2018-06-08T00:28:25.155Z,31.30
2018-06-08T00:30:53.268Z,31.43
2018-06-08T00:33:21.396Z,29.07
2018-06-08T00:35:49.504Z,32.13
2018-06-08T00:38:17.624Z,52.50
2018-06-08T00:40:45.733Z,44.30
2018-06-08T00:43:13.847Z,46.57
2018-06-08T00:45:41.950Z,47.00
2018-06-08T00:48:10.079Z,42.97
2018-06-08T00:50:38.188Z,42.63
2018-06-08T00:53:06.304Z,42.07
2018-06-08T00:55:34.411Z,43.53
2018-06-08T00:58:02.540Z,37.97
2018-06-08T01:00:30.673Z,44.80
2018-06-08T01:02:58.784Z,37.87
2018-06-08T01:05:27.016Z,41.13
2018-06-08T01:07:55.121Z,40.13
2018-06-08T01:10:23.199Z,45.33
2018-06-08T01:12:51.295Z,45.20
2018-06-08T01:15:19.376Z,43.13
2018-06-08T01:17:47.468Z,48.90
2018-06-08T01:20:15.549Z,56.10
2018-06-08T01:22:43.719Z,62.50
2018-06-08T01:25:11.797Z,73.73
2018-06-08T01:27:39.890Z,70.23
2018-06-08T01:30:08.016Z,53.67
2018-06-08T01:32:36.108Z,52.60
2018-06-08T01:35:04.748Z,46.67
2018-06-08T01:37:32.824Z,61.00
2018-06-08T01:40:00.915Z,67.77
2018-06-08T01:42:29.032Z,56.17
2018-06-08T01:44:57.136Z,65.23
2018-06-08T01:47:25.230Z,53.80
2018-06-08T01:49:53.368Z,64.40
2018-06-08T01:52:21.455Z,54.47
2018-06-08T01:54:49.691Z,59.70
2018-06-08T01:57:17.781Z,65.47
2018-06-08T01:59:45.888Z,56.20
2018-06-08T02:02:13.974Z,55.27
2018-06-08T02:04:42.081Z,43.10
2018-06-08T02:07:10.176Z,45.97
2018-06-08T02:09:38.276Z,41.50
2018-06-08T02:12:06.360Z,39.23
2018-06-08T02:14:34.469Z,107.33
2018-06-08T02:17:02.599Z,51.27
2018-06-08T02:19:30.818Z,56.90
2018-06-08T02:21:58.915Z,63.67
2018-06-08T02:24:27.020Z,68.77
2018-06-08T02:26:55.118Z,60.07
2018-06-08T02:29:23.228Z,38.43
2018-06-08T02:31:51.322Z,55.70
2018-06-08T02:34:19.457Z,88.20
2018-06-08T02:36:47.540Z,34.27
2018-06-08T02:39:15.636Z,68.57
2018-06-08T02:41:43.725Z,66.23
2018-06-08T02:44:11.824Z,42.53
2018-06-08T02:46:39.908Z,39.40
2018-06-08T02:49:08.028Z,53.50
2018-06-08T02:51:36.112Z,40.33
2018-06-08T02:54:04.225Z,54.23
2018-06-08T02:56:32.316Z,30.60
2018-06-08T02:59:00.428Z,35.27
2018-06-08T03:01:28.529Z,41.77
2018-06-08T03:03:56.659Z,41.77
2018-06-08T03:06:24.757Z,34.00
2018-06-08T03:08:52.844Z,30.60
2018-06-08T03:11:20.949Z,31.80
2018-06-08T03:13:49.036Z,33.77
2018-06-08T03:16:17.134Z,38.00
2018-06-08T03:18:45.235Z,36.10
2018-06-08T03:21:13.341Z,47.30
2018-06-08T03:23:41.436Z,50.83
2018-06-08T03:26:09.535Z,77.17
2018-06-08T03:28:37.630Z,74.50
2018-06-08T03:31:06.799Z,80.10
2018-06-08T03:33:34.911Z,41.77
2018-06-08T03:36:03.070Z,60.33
2018-06-08T03:38:31.116Z,50.70
2018-06-08T03:40:59.209Z,42.70
2018-06-08T03:43:27.287Z,93.97
2018-06-08T03:45:55.388Z,67.57
2018-06-08T03:48:23.503Z,185.13
2018-06-08T03:50:51.616Z,103.17
2018-06-08T03:53:19.704Z,112.60
2018-06-08T03:55:47.808Z,79.70
2018-06-08T03:58:15.898Z,85.00
2018-06-08T04:00:44.000Z,82.47
2018-06-08T04:03:12.087Z,134.40
2018-06-08T04:05:40.191Z,50.43
2018-06-08T04:08:08.286Z,55.97
2018-06-08T04:10:36.392Z,54.63
2018-06-08T04:13:04.740Z,55.63
2018-06-08T04:15:32.848Z,35.70
2018-06-08T04:18:00.932Z,37.00
2018-06-08T04:20:29.037Z,32.63
2018-06-08T04:22:57.132Z,30.40
2018-06-08T04:25:25.240Z,25.20
2018-06-08T04:27:53.331Z,25.60
2018-06-08T04:30:21.496Z,22.70
2018-06-08T04:32:49.603Z,27.03
2018-06-08T04:35:17.728Z,24.70
2018-06-08T04:37:45.816Z,23.87
2018-06-08T04:40:13.944Z,23.80
2018-06-08T04:42:42.036Z,21.13
2018-06-08T04:45:10.592Z,30.30
2018-06-08T04:47:38.700Z,22.90
2018-06-08T04:50:06.804Z,19.23
2018-06-08T04:52:34.904Z,21.27
2018-06-08T04:55:02.988Z,22.47
2018-06-08T04:57:31.100Z,25.80
2018-06-08T04:59:59.191Z,22.70
2018-06-08T05:02:27.303Z,23.83
2018-06-08T05:04:55.396Z,26.47
2018-06-08T05:07:23.504Z,23.57
2018-06-08T05:09:51.602Z,23.87
2018-06-08T05:12:19.699Z,23.00
2018-06-08T05:14:47.796Z,22.00
2018-06-08T05:17:15.900Z,25.13
2018-06-08T05:19:43.989Z,34.10
2018-06-08T05:22:12.092Z,23.83
2018-06-08T05:24:40.188Z,26.80
2018-06-08T05:27:08.300Z,28.10
2018-06-08T05:29:36.395Z,26.53
2018-06-08T05:32:04.509Z,26.63
2018-06-08T05:34:32.610Z,35.13
2018-06-08T05:37:00.719Z,34.10
2018-06-08T05:39:28.808Z,35.90
2018-06-08T05:41:56.912Z,30.30
2018-06-08T05:44:25.004Z,39.43
2018-06-08T05:46:53.107Z,35.47
2018-06-08T05:49:21.212Z,36.63
2018-06-08T05:51:49.324Z,32.30
2018-06-08T05:54:17.428Z,33.73
2018-06-08T05:56:45.536Z,34.73
2018-06-08T05:59:13.623Z,35.07
2018-06-08T06:01:41.728Z,46.83
2018-06-08T06:04:09.817Z,61.00
2018-06-08T06:06:37.927Z,52.90
2018-06-08T06:09:07.392Z,42.33
2018-06-08T06:11:35.664Z,62.70
2018-06-08T06:14:03.790Z,76.77
2018-06-08T06:16:31.884Z,44.83
2018-06-08T06:19:00.010Z,44.57
2018-06-08T06:21:28.108Z,43.67
2018-06-08T06:23:56.224Z,43.23
2018-06-08T06:26:24.316Z,41.10
2018-06-08T06:28:52.741Z,38.37
2018-06-08T06:31:20.900Z,33.67
2018-06-08T06:33:49.005Z,35.57
2018-06-08T06:36:17.104Z,33.67
2018-06-08T06:38:45.212Z,34.27
2018-06-08T06:41:13.327Z,34.20
2018-06-08T06:43:41.429Z,36.63
2018-06-08T06:46:09.524Z,33.07
2018-06-08T06:48:37.644Z,34.43
2018-06-08T06:51:05.770Z,35.87
2018-06-08T06:53:33.880Z,37.57
2018-06-08T06:56:01.984Z,33.47
2018-06-08T06:58:30.169Z,35.97
2018-06-08T07:00:58.312Z,38.90
2018-06-08T07:03:26.432Z,33.23
2018-06-08T07:05:54.667Z,39.97
2018-06-08T07:08:22.823Z,33.23
2018-06-08T07:10:51.013Z,27.60
2018-06-08T07:13:19.124Z,30.80
2018-06-08T07:15:47.212Z,27.03
2018-06-08T07:18:15.324Z,29.93
2018-06-08T07:20:43.425Z,30.07
2018-06-08T07:23:11.540Z,32.30
2018-06-08T07:25:39.639Z,30.70
2018-06-08T07:28:07.748Z,33.70
2018-06-08T07:30:35.843Z,31.27
2018-06-08T07:33:03.956Z,33.70
2018-06-08T07:35:32.055Z,36.67
2018-06-08T07:38:00.176Z,28.43
2018-06-08T07:40:28.267Z,29.50
2018-06-08T07:42:56.387Z,32.20
2018-06-08T07:45:24.480Z,30.77
2018-06-08T07:47:52.592Z,30.67
2018-06-08T07:50:20.709Z,29.60
2018-06-08T07:52:48.801Z,34.77
2018-06-08T07:55:16.913Z,32.90
2018-06-08T07:57:45.010Z,33.00
2018-06-08T08:00:13.185Z,37.53
2018-06-08T08:02:41.222Z,31.17
2018-06-08T08:05:09.323Z,31.20
2018-06-08T08:07:37.524Z,31.00
2018-06-08T08:10:05.738Z,29.60
2018-06-08T08:12:33.823Z,26.87
2018-06-08T08:15:01.932Z,28.63
2018-06-08T08:17:30.042Z,26.90
2018-06-08T08:19:58.185Z,28.50
2018-06-08T08:22:26.333Z,26.57
2018-06-08T08:24:54.445Z,28.60
2018-06-08T08:27:22.540Z,28.97
2018-06-08T08:29:50.644Z,22.87
2018-06-08T08:32:18.736Z,28.50
2018-06-08T08:34:46.837Z,33.77
2018-06-08T08:37:14.928Z,31.67
2018-06-08T08:39:43.049Z,27.83
2018-06-08T08:42:11.160Z,29.10
2018-06-08T08:44:39.272Z,30.50
2018-06-08T08:47:07.380Z,28.33
2018-06-08T08:49:35.504Z,27.27
2018-06-08T08:52:03.733Z,26.00
2018-06-08T08:54:31.737Z,24.10
2018-06-08T08:56:59.857Z,24.50
2018-06-08T08:59:27.965Z,19.63
2018-06-08T09:01:56.064Z,20.07
2018-06-08T09:04:24.168Z,23.70
2018-06-08T09:06:52.259Z,22.47
2018-06-08T09:09:20.368Z,19.63
2018-06-08T09:11:48.466Z,17.70
2018-06-08T09:14:16.580Z,19.03
2018-06-08T09:16:44.686Z,19.17
2018-06-08T09:19:12.784Z,18.97
2018-06-08T09:21:40.892Z,19.87
2018-06-08T09:24:09.528Z,18.23
2018-06-08T09:26:37.644Z,16.77
2018-06-08T09:29:05.732Z,20.47
2018-06-08T09:31:33.847Z,16.93
2018-06-08T09:34:01.948Z,20.20
2018-06-08T09:36:30.060Z,21.13
2018-06-08T09:38:58.156Z,24.43
2018-06-08T09:41:26.260Z,14.93
2018-06-08T09:43:54.349Z,15.73
2018-06-08T09:46:22.543Z,17.90
2018-06-08T09:48:50.660Z,20.37
2018-06-08T09:51:18.763Z,13.83
2018-06-08T09:53:46.840Z,12.73
2018-06-08T09:56:14.956Z,12.80
2018-06-08T09:58:43.048Z,8.03
2018-06-08T10:01:11.159Z,11.00
2018-06-08T10:03:39.256Z,9.27
2018-06-08T10:06:07.365Z,13.00
2018-06-08T10:08:35.453Z,8.70
2018-06-08T10:11:03.560Z,9.53
2018-06-08T10:13:31.643Z,8.37
2018-06-08T10:15:59.768Z,10.10
2018-06-08T10:18:27.876Z,14.33
2018-06-08T10:20:56.458Z,8.70
2018-06-08T10:23:24.545Z,8.53
2018-06-08T10:25:52.660Z,9.10
2018-06-08T10:28:20.799Z,8.77
2018-06-08T10:30:48.889Z,9.73
2018-06-08T10:33:16.973Z,10.13
2018-06-08T10:35:45.075Z,11.77
2018-06-08T10:38:13.164Z,13.13
2018-06-08T10:40:41.277Z,9.77
2018-06-08T10:43:09.360Z,8.70
2018-06-08T10:45:37.485Z,9.10
2018-06-08T10:48:05.592Z,9.27
2018-06-08T10:50:33.975Z,8.80
2018-06-08T10:53:02.084Z,9.63
2018-06-08T10:55:30.168Z,7.93
2018-06-08T10:57:58.272Z,10.13
2018-06-08T11:00:26.365Z,9.17
2018-06-08T11:02:54.468Z,8.20
2018-06-08T11:05:22.571Z,10.30
2018-06-08T11:07:50.927Z,13.00
2018-06-08T11:10:19.016Z,8.37
2018-06-08T11:12:47.108Z,8.80
2018-06-08T11:15:15.188Z,7.87
2018-06-08T11:17:43.283Z,8.93
2018-06-08T11:20:11.368Z,9.40
2018-06-08T11:22:39.464Z,9.83
2018-06-08T11:25:07.556Z,7.30
2018-06-08T11:27:35.656Z,8.40
2018-06-08T11:30:03.756Z,7.40
2018-06-08T11:32:31.856Z,10.43
2018-06-08T11:34:59.947Z,11.90
2018-06-08T11:37:28.048Z,9.43
2018-06-08T11:39:56.136Z,9.53
2018-06-08T11:42:24.248Z,10.13
2018-06-08T11:44:52.340Z,10.57
2018-06-08T11:47:20.440Z,11.47
2018-06-08T11:49:48.548Z,10.67
2018-06-08T11:52:16.653Z,8.17
2018-06-08T11:54:44.740Z,9.97
2018-06-08T11:57:12.845Z,7.63
2018-06-08T11:59:40.931Z,8.50
2018-06-08T12:02:09.036Z,8.00
2018-06-08T12:04:37.116Z,9.33
2018-06-08T12:07:05.232Z,7.37
2018-06-08T12:09:33.330Z,9.37
2018-06-08T12:12:01.484Z,6.00
2018-06-08T12:14:29.656Z,7.40
2018-06-08T12:16:57.778Z,9.83
2018-06-08T12:19:26.025Z,13.57
2018-06-08T12:21:54.157Z,11.40
2018-06-08T12:24:22.231Z,10.27
2018-06-08T12:26:50.316Z,13.13
2018-06-08T12:29:18.417Z,12.27
2018-06-08T12:31:46.524Z,12.90
2018-06-08T12:34:14.636Z,14.07
2018-06-08T12:36:42.723Z,13.60
2018-06-08T12:39:10.845Z,10.80
2018-06-08T12:41:38.949Z,10.43
2018-06-08T12:44:07.052Z,9.77
2018-06-08T12:46:35.138Z,9.60
2018-06-08T12:49:03.290Z,10.90
2018-06-08T12:51:31.388Z,12.40
2018-06-08T12:53:59.495Z,10.83
2018-06-08T12:56:27.596Z,10.30
2018-06-08T12:58:55.699Z,12.50
2018-06-08T13:01:23.780Z,12.13
2018-06-08T13:03:51.876Z,8.97
2018-06-08T13:06:19.968Z,11.70
2018-06-08T13:08:48.080Z,15.33
2018-06-08T13:11:16.172Z,12.77
2018-06-08T13:13:44.282Z,11.47
2018-06-08T13:16:12.381Z,10.13
2018-06-08T13:18:40.483Z,11.60
2018-06-08T13:21:08.572Z,10.30
2018-06-08T13:23:36.676Z,13.40
2018-06-08T13:26:04.800Z,11.40
2018-06-08T13:28:32.917Z,12.10
2018-06-08T13:31:01.020Z,12.13
2018-06-08T13:33:29.129Z,12.50
2018-06-08T13:35:57.211Z,12.00
2018-06-08T13:38:25.310Z,9.63
2018-06-08T13:40:53.396Z,10.53
2018-06-08T13:43:21.504Z,11.80
2018-06-08T13:45:49.592Z,10.83
2018-06-08T13:48:17.720Z,9.87
2018-06-08T13:50:45.824Z,11.77
2018-06-08T13:53:13.933Z,14.60
2018-06-08T13:55:42.041Z,11.23
2018-06-08T13:58:10.456Z,10.77
2018-06-08T14:00:38.544Z,10.73
2018-06-08T14:03:06.644Z,10.00
2018-06-08T14:05:34.750Z,11.97
2018-06-08T14:08:02.847Z,10.60
2018-06-08T14:10:30.959Z,12.40
2018-06-08T14:12:59.048Z,13.13
2018-06-08T14:15:27.143Z,10.83
2018-06-08T14:17:55.228Z,10.90
2018-06-08T14:20:23.332Z,11.10
2018-06-08T14:22:51.441Z,11.63
2018-06-08T14:25:19.537Z,9.17
2018-06-08T14:27:47.632Z,14.73
2018-06-08T14:30:15.732Z,9.83
2018-06-08T14:32:43.821Z,11.57
2018-06-08T14:35:11.957Z,10.83
2018-06-08T14:37:40.066Z,10.33
2018-06-08T14:40:08.177Z,12.10
2018-06-08T14:42:36.273Z,10.40
2018-06-08T14:45:04.401Z,10.97
2018-06-08T14:47:32.536Z,12.93
2018-06-08T14:50:00.669Z,13.30
2018-06-08T14:52:28.767Z,8.73
2018-06-08T14:54:56.874Z,10.93
2018-06-08T14:57:26.409Z,11.77
2018-06-08T14:59:54.517Z,10.17
2018-06-08T15:02:22.606Z,13.33
2018-06-08T15:04:50.718Z,11.87
2018-06-08T15:07:18.811Z,15.97
2018-06-08T15:09:46.916Z,13.40
2018-06-08T15:12:14.996Z,16.60
2018-06-08T15:14:43.117Z,17.13
2018-06-08T15:17:11.204Z,12.57
2018-06-08T15:19:39.323Z,12.43
2018-06-08T15:22:07.412Z,14.73
2018-06-08T15:24:35.520Z,13.33
2018-06-08T15:27:03.609Z,15.30
2018-06-08T15:29:31.727Z,15.90
2018-06-08T15:31:59.813Z,14.90
2018-06-08T15:34:27.908Z,13.63
2018-06-08T15:36:56.004Z,11.50
2018-06-08T15:39:24.091Z,10.50
2018-06-08T15:41:52.196Z,13.03
2018-06-08T15:44:20.280Z,11.70
2018-06-08T15:46:48.385Z,11.30
2018-06-08T15:49:16.501Z,13.63
2018-06-08T15:51:44.620Z,6.97
2018-06-08T15:54:12.716Z,9.67
2018-06-08T15:56:40.833Z,9.83
2018-06-08T15:59:08.923Z,8.07
2018-06-08T16:01:37.024Z,10.90
2018-06-08T16:04:05.154Z,9.40
2018-06-08T16:06:33.265Z,8.23
2018-06-08T16:09:01.357Z,13.30
2018-06-08T16:11:29.460Z,8.23
2018-06-08T16:13:57.626Z,7.30
2018-06-08T16:16:25.748Z,9.03
2018-06-08T16:18:53.840Z,9.90
2018-06-08T16:21:21.954Z,10.93
2018-06-08T16:23:50.071Z,13.60
2018-06-08T16:26:18.186Z,6.47
2018-06-08T16:28:46.280Z,11.00
2018-06-08T16:31:14.472Z,8.17
2018-06-08T16:33:42.560Z,13.13
2018-06-08T16:36:10.709Z,11.20
2018-06-08T16:38:38.858Z,18.37
2018-06-08T16:41:06.960Z,9.90
2018-06-08T16:43:35.041Z,8.40
2018-06-08T16:46:03.140Z,8.53
2018-06-08T16:48:31.235Z,10.20
2018-06-08T16:50:59.348Z,13.60
2018-06-08T16:53:27.439Z,8.20
2018-06-08T16:55:55.557Z,9.40
2018-06-08T16:58:23.648Z,7.93
2018-06-08T17:00:51.748Z,8.83
2018-06-08T17:03:19.836Z,8.20
2018-06-08T17:05:47.956Z,7.20
2018-06-08T17:08:16.085Z,11.10
2018-06-08T17:10:44.168Z,6.97
2018-06-08T17:13:12.275Z,6.30
2018-06-08T17:18:01.139Z,6.27
2018-06-08T17:20:29.248Z,7.73
2018-06-08T17:22:57.348Z,8.73
2018-06-08T17:25:25.434Z,7.63
2018-06-08T17:27:53.536Z,7.73
2018-06-08T17:30:21.624Z,8.40
2018-06-08T17:32:49.728Z,8.73
2018-06-08T17:35:17.812Z,12.50
2018-06-08T17:37:45.932Z,12.30
2018-06-08T17:40:14.080Z,9.47
2018-06-08T17:42:42.194Z,11.50
2018-06-08T17:45:10.281Z,5.30
2018-06-08T17:47:38.373Z,8.17
2018-06-08T17:50:06.483Z,12.13
2018-06-08T17:52:34.579Z,10.73
2018-06-08T17:55:02.676Z,9.03
2018-06-08T17:57:30.787Z,9.70
2018-06-08T17:59:58.864Z,8.70
2018-06-08T18:02:26.969Z,7.03
2018-06-08T18:04:55.060Z,7.13
2018-06-08T18:07:23.158Z,11.97
2018-06-08T18:09:51.336Z,6.80
2018-06-08T18:12:19.436Z,7.70
2018-06-08T18:14:47.516Z,5.30
2018-06-08T18:17:15.612Z,9.90
2018-06-08T18:19:43.700Z,7.80
2018-06-08T18:22:11.814Z,5.20
2018-06-08T18:24:40.016Z,7.60
2018-06-08T18:27:09.224Z,7.50
2018-06-08T18:29:37.324Z,5.23
2018-06-08T18:32:05.428Z,9.37
2018-06-08T18:34:33.516Z,5.77
2018-06-08T18:37:01.948Z,5.50
2018-06-08T18:39:30.034Z,9.33
2018-06-08T18:41:58.124Z,6.00
2018-06-08T18:44:26.219Z,8.80
2018-06-08T18:46:54.316Z,6.63
2018-06-08T18:49:22.440Z,10.07
2018-06-08T18:51:50.524Z,5.10
2018-06-08T18:54:18.672Z,5.10
2018-06-08T18:56:46.725Z,5.57
2018-06-08T18:59:14.832Z,10.60
2018-06-08T19:01:42.924Z,8.10
2018-06-08T19:04:11.077Z,6.33
2018-06-08T19:06:39.163Z,5.47
2018-06-08T19:09:07.972Z,4.63
2018-06-08T19:11:36.089Z,5.70
2018-06-08T19:14:04.208Z,6.80
2018-06-08T19:16:32.312Z,6.37
2018-06-08T19:19:00.412Z,6.20
2018-06-08T19:21:28.492Z,7.27
2018-06-08T19:23:56.601Z,5.13
2018-06-08T19:26:24.696Z,6.63
2018-06-08T19:28:52.800Z,7.90
2018-06-08T19:31:20.892Z,8.13
2018-06-08T19:33:48.996Z,6.20
2018-06-08T19:36:17.100Z,7.57
2018-06-08T19:38:45.200Z,8.67
2018-06-08T19:41:13.283Z,8.20
2018-06-08T19:43:41.395Z,8.57
2018-06-08T19:46:09.476Z,7.80
2018-06-08T19:48:37.596Z,8.23
2018-06-08T19:51:05.695Z,10.83
2018-06-08T19:53:33.796Z,7.23
2018-06-08T19:56:01.893Z,10.30
2018-06-08T19:58:30.027Z,8.20
2018-06-08T20:00:58.095Z,8.27
2018-06-08T20:03:26.196Z,8.33
2018-06-08T20:05:54.369Z,8.17
2018-06-08T20:08:22.490Z,7.43
2018-06-08T20:10:50.591Z,12.03
2018-06-08T20:13:18.696Z,12.73
2018-06-08T20:15:46.812Z,9.57
2018-06-08T20:18:14.926Z,9.80
2018-06-08T20:20:43.057Z,12.07
2018-06-08T20:23:11.143Z,10.90
2018-06-08T20:25:39.267Z,8.73
2018-06-08T20:28:07.359Z,11.00
2018-06-08T20:30:35.486Z,10.83
2018-06-08T20:33:03.586Z,11.40
2018-06-08T20:35:31.769Z,11.50
2018-06-08T20:37:59.881Z,8.33
2018-06-08T20:40:28.001Z,11.43
2018-06-08T20:42:56.192Z,9.97
2018-06-08T20:45:24.299Z,13.70
2018-06-08T20:47:52.391Z,11.10
2018-06-08T20:50:20.515Z,12.53
2018-06-08T20:52:48.594Z,8.93
2018-06-08T20:55:16.728Z,13.03
2018-06-08T20:57:50.268Z,8.87
2018-06-08T21:00:18.393Z,14.40
2018-06-08T21:02:46.476Z,9.00
2018-06-08T21:05:14.592Z,7.97
2018-06-08T21:07:42.680Z,8.07
2018-06-08T21:10:10.795Z,9.80
2018-06-08T21:12:38.883Z,8.47
2018-06-08T21:15:06.988Z,9.00
2018-06-08T21:17:35.077Z,8.30
2018-06-08T21:20:03.196Z,9.70
2018-06-08T21:22:31.275Z,9.83
2018-06-08T21:24:59.380Z,8.70
2018-06-08T21:27:27.468Z,9.00
2018-06-08T21:29:55.572Z,10.83
2018-06-08T21:32:23.699Z,15.00
2018-06-08T21:34:51.804Z,10.53
2018-06-08T21:37:19.892Z,13.93
2018-06-08T21:39:48.004Z,9.17
2018-06-08T21:42:16.090Z,12.73
2018-06-08T21:44:44.305Z,8.40
2018-06-08T21:47:12.380Z,9.83
2018-06-08T21:49:40.504Z,9.63
2018-06-08T21:52:08.584Z,11.50
2018-06-08T21:54:36.664Z,10.40
2018-06-08T21:57:04.803Z,14.43
2018-06-08T21:59:32.889Z,13.10
2018-06-08T22:02:00.998Z,10.47
2018-06-08T22:04:29.097Z,10.30
2018-06-08T22:06:57.652Z,12.03
2018-06-08T22:09:25.764Z,12.50
2018-06-08T22:11:53.886Z,9.67
2018-06-08T22:14:21.988Z,13.60
2018-06-08T22:16:50.087Z,8.57
2018-06-08T22:19:18.176Z,9.23
2018-06-08T22:21:46.280Z,11.60
2018-06-08T22:24:14.385Z,13.87
2018-06-08T22:26:42.496Z,13.30
2018-06-08T22:29:10.583Z,9.97
2018-06-08T22:31:38.687Z,10.87
2018-06-08T22:34:06.840Z,15.50
2018-06-08T22:36:34.948Z,11.63
2018-06-08T22:39:03.533Z,18.10
2018-06-08T22:41:31.640Z,12.60
2018-06-08T22:43:59.744Z,12.37
2018-06-08T22:46:27.843Z,14.73
2018-06-08T22:48:55.947Z,11.00
2018-06-08T22:51:24.052Z,10.57
2018-06-08T22:53:52.135Z,12.27
2018-06-08T22:56:20.464Z,13.70
2018-06-08T22:58:48.547Z,12.13
2018-06-08T23:01:16.660Z,19.77
2018-06-08T23:03:44.752Z,12.37
2018-06-08T23:06:12.852Z,14.80
2018-06-08T23:08:40.944Z,18.50
2018-06-08T23:11:09.051Z,13.40
2018-06-08T23:13:37.136Z,13.27
2018-06-08T23:16:05.244Z,12.50
2018-06-08T23:18:33.324Z,11.10
2018-06-08T23:21:01.439Z,10.20
2018-06-08T23:23:29.520Z,12.90
2018-06-08T23:25:57.605Z,11.33
2018-06-08T23:28:26.064Z,10.10
2018-06-08T23:30:54.144Z,8.83
2018-06-08T23:33:22.249Z,10.43
2018-06-08T23:35:50.341Z,10.90
2018-06-08T23:38:18.456Z,13.63
2018-06-08T23:40:46.532Z,9.43
2018-06-08T23:43:14.628Z,14.07
2018-06-08T23:45:42.716Z,11.23
2018-06-08T23:48:10.818Z,12.63
2018-06-08T23:50:38.921Z,9.00
2018-06-08T23:53:07.023Z,14.27
2018-06-08T23:55:35.112Z,14.67
2018-06-08T23:58:03.211Z,11.60
